createdAt,value
2023-03-12T00:00:08.929Z,7.38
2023-03-12T00:02:35.658Z,7.63
2023-03-12T00:05:02.530Z,8.13
2023-03-12T00:07:29.318Z,7.65
2023-03-12T00:09:56.051Z,7.18
2023-03-12T00:12:22.725Z,7.70
2023-03-12T00:14:49.385Z,8.20
2023-03-12T00:17:16.070Z,7.05
2023-03-12T00:19:42.726Z,7.53
2023-03-12T00:22:09.355Z,6.93
2023-03-12T00:24:36.082Z,7.53
2023-03-12T00:27:02.747Z,7.75
2023-03-12T00:29:29.373Z,7.60
2023-03-12T00:31:56.000Z,9.18
2023-03-12T00:34:22.605Z,7.80
2023-03-12T00:36:49.688Z,7.72
2023-03-12T00:39:16.324Z,7.72
2023-03-12T00:41:43.039Z,8.40
2023-03-12T00:44:09.777Z,7.75
2023-03-12T00:46:36.507Z,7.80
2023-03-12T00:49:03.270Z,8.48
2023-03-12T00:51:29.915Z,6.80
2023-03-12T00:53:56.642Z,5.63
2023-03-12T00:56:23.319Z,6.32
2023-03-12T00:58:50.011Z,5.93
2023-03-12T01:01:16.852Z,6.90
2023-03-12T01:03:43.722Z,6.25
2023-03-12T01:06:10.586Z,6.32
2023-03-12T01:08:37.559Z,6.28
2023-03-12T01:11:04.791Z,6.40
2023-03-12T01:13:31.583Z,6.00
2023-03-12T01:15:58.373Z,6.88
2023-03-12T01:18:25.051Z,6.38
2023-03-12T01:20:51.734Z,5.78
2023-03-12T01:23:18.590Z,5.93
2023-03-12T01:25:45.306Z,5.78
2023-03-12T01:28:11.938Z,4.70
2023-03-12T01:30:39.103Z,5.88
2023-03-12T01:33:05.763Z,6.03
2023-03-12T01:35:39.946Z,5.82
2023-03-12T01:38:08.134Z,6.13
2023-03-12T01:40:36.063Z,6.50
2023-03-12T01:43:22.305Z,5.28
2023-03-12T01:46:06.967Z,4.68
2023-03-12T01:48:41.534Z,6.57
2023-03-12T01:51:10.516Z,6.53
2023-03-12T01:53:38.269Z,5.13
2023-03-12T01:56:06.263Z,5.55
2023-03-12T01:58:36.381Z,5.57
2023-03-12T02:01:03.140Z,4.93
2023-03-12T02:03:31.662Z,4.80
2023-03-12T02:06:06.840Z,4.97
2023-03-12T02:08:37.908Z,5.35
2023-03-12T02:11:04.727Z,5.40
2023-03-12T02:13:31.478Z,4.88
2023-03-12T02:15:58.306Z,6.88
2023-03-12T02:18:25.755Z,5.80
2023-03-12T02:21:16.036Z,4.75
2023-03-12T02:23:52.133Z,5.30
2023-03-12T02:26:21.666Z,5.30
2023-03-12T02:28:50.065Z,4.53
2023-03-12T02:31:21.767Z,4.90
2023-03-12T02:33:48.496Z,5.05
2023-03-12T02:36:15.459Z,5.07
2023-03-12T02:38:50.105Z,5.10
2023-03-12T02:41:18.794Z,4.47
2023-03-12T02:43:49.162Z,4.85
2023-03-12T02:46:16.065Z,4.80
2023-03-12T02:48:42.738Z,5.13
2023-03-12T02:51:09.727Z,5.03
2023-03-12T02:53:36.363Z,4.43
2023-03-12T02:56:03.187Z,4.65
2023-03-12T02:58:30.185Z,4.93
2023-03-12T03:00:56.899Z,4.55
2023-03-12T03:03:23.682Z,4.88
2023-03-12T03:05:50.317Z,6.40
2023-03-12T03:08:17.132Z,4.18
2023-03-12T03:10:43.772Z,5.63
2023-03-12T03:13:10.464Z,5.32
2023-03-12T03:15:38.720Z,5.30
2023-03-12T03:18:05.814Z,5.10
2023-03-12T03:20:32.947Z,4.75
2023-03-12T03:22:59.655Z,4.90
2023-03-12T03:25:26.398Z,4.82
2023-03-12T03:27:53.092Z,4.72
2023-03-12T03:30:21.265Z,5.32
2023-03-12T03:32:49.946Z,5.68
2023-03-12T03:35:17.465Z,3.97
2023-03-12T03:37:44.182Z,4.55
2023-03-12T03:40:12.242Z,4.50
2023-03-12T03:42:40.012Z,4.93
2023-03-12T03:45:08.431Z,4.20
2023-03-12T03:47:35.305Z,4.97
2023-03-12T03:50:02.207Z,4.28
2023-03-12T03:52:28.879Z,4.13
2023-03-12T03:54:56.918Z,4.55
2023-03-12T03:57:23.803Z,4.85
2023-03-12T03:59:50.636Z,4.22
2023-03-12T04:02:18.480Z,4.32
2023-03-12T04:04:45.142Z,4.38
2023-03-12T04:07:11.910Z,4.22
2023-03-12T04:09:38.542Z,3.92
2023-03-12T04:12:05.390Z,4.05
2023-03-12T04:14:32.026Z,4.63
2023-03-12T04:16:58.658Z,4.20
2023-03-12T04:19:25.607Z,4.30
2023-03-12T04:21:52.249Z,5.05
2023-03-12T04:24:20.241Z,4.15
2023-03-12T04:26:46.891Z,5.60
2023-03-12T04:29:13.726Z,5.45
2023-03-12T04:31:40.473Z,5.22
2023-03-12T04:34:07.139Z,5.65
2023-03-12T04:36:33.784Z,4.57
2023-03-12T04:39:00.470Z,5.85
2023-03-12T04:41:27.198Z,5.43
2023-03-12T04:43:53.882Z,5.85
2023-03-12T04:46:20.608Z,4.45
2023-03-12T04:48:47.257Z,6.05
2023-03-12T04:51:13.893Z,6.07
2023-03-12T04:53:40.701Z,6.00
2023-03-12T04:56:07.640Z,5.60
2023-03-12T04:58:35.800Z,5.45
2023-03-12T05:01:02.798Z,5.78
2023-03-12T05:03:29.729Z,6.60
2023-03-12T05:05:56.413Z,5.95
2023-03-12T05:08:23.138Z,5.30
2023-03-12T05:10:49.980Z,6.32
2023-03-12T05:13:19.035Z,7.00
2023-03-12T05:15:47.510Z,6.82
2023-03-12T05:18:14.230Z,6.57
2023-03-12T05:20:40.865Z,5.90
2023-03-12T05:23:07.558Z,6.30
2023-03-12T05:25:34.374Z,6.65
2023-03-12T05:28:00.998Z,6.07
2023-03-12T05:30:27.637Z,6.07
2023-03-12T05:32:54.331Z,6.93
2023-03-12T05:35:21.068Z,6.53
2023-03-12T05:37:47.851Z,6.53
2023-03-12T05:40:14.673Z,6.35
2023-03-12T05:42:41.351Z,6.35
2023-03-12T05:45:08.888Z,6.85
2023-03-12T05:47:35.563Z,6.63
2023-03-12T05:50:02.176Z,6.40
2023-03-12T05:52:28.817Z,7.20
2023-03-12T05:54:55.480Z,7.40
2023-03-12T05:57:22.177Z,6.78
2023-03-12T05:59:48.814Z,6.68
2023-03-12T06:02:15.492Z,6.40
2023-03-12T06:04:42.138Z,6.95
2023-03-12T06:07:08.773Z,7.00
2023-03-12T06:09:36.126Z,7.72
2023-03-12T06:12:02.895Z,6.95
2023-03-12T06:14:29.873Z,7.57
2023-03-12T06:16:56.667Z,7.57
2023-03-12T06:19:23.416Z,7.05
2023-03-12T06:21:50.332Z,7.05
2023-03-12T06:24:17.023Z,6.93
2023-03-12T06:26:43.699Z,5.65
2023-03-12T06:29:10.455Z,6.28
2023-03-12T06:31:38.886Z,7.15
2023-03-12T06:34:06.170Z,6.78
2023-03-12T06:36:32.853Z,5.93
2023-03-12T06:38:59.565Z,6.50
2023-03-12T06:41:26.194Z,6.28
2023-03-12T06:43:53.116Z,6.70
2023-03-12T06:46:25.629Z,6.55
2023-03-12T06:48:52.473Z,6.18
2023-03-12T06:51:19.258Z,5.80
2023-03-12T06:53:46.668Z,5.85
2023-03-12T06:56:13.765Z,7.15
2023-03-12T06:58:40.610Z,6.75
2023-03-12T07:01:07.980Z,6.82
2023-03-12T07:03:34.798Z,6.85
2023-03-12T07:06:01.506Z,6.88
2023-03-12T07:08:31.680Z,7.95
2023-03-12T07:11:01.816Z,6.63
2023-03-12T07:13:29.332Z,7.28
2023-03-12T07:15:56.084Z,6.30
2023-03-12T07:18:22.806Z,6.45
2023-03-12T07:20:49.494Z,7.50
2023-03-12T07:23:16.374Z,7.80
2023-03-12T07:25:43.694Z,6.32
2023-03-12T07:28:11.480Z,7.00
2023-03-12T07:30:38.497Z,6.85
2023-03-12T07:33:07.098Z,5.90
2023-03-12T07:35:34.298Z,6.97
2023-03-12T07:38:02.105Z,6.50
2023-03-12T07:40:29.560Z,5.82
2023-03-12T07:42:56.222Z,6.47
2023-03-12T07:45:23.331Z,6.10
2023-03-12T07:47:50.865Z,5.75
2023-03-12T07:50:18.599Z,4.90
2023-03-12T07:52:46.788Z,5.28
2023-03-12T07:55:13.906Z,4.95
2023-03-12T07:57:40.804Z,4.80
2023-03-12T08:00:10.960Z,4.80
2023-03-12T08:02:37.790Z,4.95
2023-03-12T08:05:06.334Z,4.57
2023-03-12T08:07:35.127Z,4.28
2023-03-12T08:10:05.348Z,4.40
2023-03-12T08:12:32.229Z,3.20
2023-03-12T08:14:59.161Z,3.58
2023-03-12T08:17:26.217Z,3.50
2023-03-12T08:19:52.971Z,4.82
2023-03-12T08:22:19.649Z,4.13
2023-03-12T08:24:46.490Z,3.63
2023-03-12T08:27:13.518Z,4.05
2023-03-12T08:29:41.159Z,4.22
2023-03-12T08:32:08.842Z,3.95
2023-03-12T08:34:35.713Z,4.18
2023-03-12T08:37:03.265Z,3.92
2023-03-12T08:39:30.119Z,3.90
2023-03-12T08:41:56.767Z,3.53
2023-03-12T08:44:23.968Z,4.43
2023-03-12T08:46:51.346Z,3.72
2023-03-12T08:49:18.644Z,4.60
2023-03-12T08:51:46.681Z,4.40
2023-03-12T08:54:13.325Z,4.20
2023-03-12T08:56:43.656Z,3.78
2023-03-12T08:59:11.533Z,4.47
2023-03-12T09:01:43.741Z,4.30
2023-03-12T09:04:11.062Z,3.65
2023-03-12T09:06:38.441Z,3.97
2023-03-12T09:09:05.768Z,3.33
2023-03-12T09:11:34.106Z,4.03
2023-03-12T09:14:42.668Z,3.50
2023-03-12T09:16:48.581Z,3.55
2023-03-12T09:19:15.831Z,3.63
2023-03-12T09:21:42.717Z,4.38
2023-03-12T09:24:11.228Z,3.80
2023-03-12T09:26:37.881Z,4.00
2023-03-12T09:29:04.930Z,4.28
2023-03-12T09:31:31.785Z,3.90
2023-03-12T09:33:58.546Z,4.50
2023-03-12T09:36:25.342Z,3.35
2023-03-12T09:38:52.040Z,3.85
2023-03-12T09:41:22.142Z,3.95
2023-03-12T09:44:18.307Z,3.63
2023-03-12T09:46:53.293Z,3.30
2023-03-12T09:49:26.318Z,3.90
2023-03-12T09:51:56.911Z,2.95
2023-03-12T09:54:38.448Z,3.30
2023-03-12T09:57:12.534Z,3.88
2023-03-12T09:59:39.297Z,3.55
2023-03-12T10:02:23.214Z,3.80
2023-03-12T10:05:03.318Z,3.10
2023-03-12T10:07:34.704Z,3.00
2023-03-12T10:10:23.746Z,2.80
2023-03-12T10:13:12.094Z,3.25
2023-03-12T10:15:38.706Z,3.17
2023-03-12T10:18:15.746Z,2.47
2023-03-12T10:20:51.096Z,2.92
2023-03-12T10:23:28.143Z,3.33
2023-03-12T10:26:13.463Z,3.17
2023-03-12T10:29:02.082Z,3.53
2023-03-12T10:31:45.319Z,3.88
2023-03-12T10:34:21.875Z,3.65
2023-03-12T10:36:48.595Z,3.95
2023-03-12T10:39:18.438Z,4.18
2023-03-12T10:41:47.386Z,3.70
2023-03-12T10:44:21.957Z,3.78
2023-03-12T10:46:59.464Z,5.03
2023-03-12T10:49:30.389Z,5.07
2023-03-12T10:54:31.905Z,4.25
2023-03-12T10:56:58.895Z,4.60
2023-03-12T10:59:29.369Z,4.68
2023-03-12T11:01:56.949Z,4.03
2023-03-12T11:04:27.516Z,4.57
2023-03-12T11:07:15.026Z,3.88
2023-03-12T11:09:41.833Z,4.43
2023-03-12T11:12:27.275Z,4.30
2023-03-12T11:14:54.065Z,4.55
2023-03-12T11:17:24.145Z,5.85
2023-03-12T11:19:51.220Z,6.90
2023-03-12T11:22:30.410Z,6.53
2023-03-12T11:25:06.238Z,5.85
2023-03-12T11:27:45.968Z,5.15
2023-03-12T11:30:16.241Z,5.35
2023-03-12T11:32:47.590Z,8.15
2023-03-12T11:35:17.163Z,5.28
2023-03-12T11:38:03.149Z,5.68
2023-03-12T11:40:56.648Z,4.57
2023-03-12T11:43:57.025Z,5.50
2023-03-12T11:46:51.379Z,5.47
2023-03-12T11:49:41.616Z,5.32
2023-03-12T11:52:27.280Z,6.40
2023-03-12T11:55:16.580Z,5.90
2023-03-12T11:58:13.124Z,4.93
2023-03-12T12:01:06.965Z,6.03
2023-03-12T12:04:07.679Z,5.30
2023-03-12T12:06:37.078Z,4.93
2023-03-12T12:09:18.313Z,5.25
2023-03-12T12:12:11.126Z,5.82
2023-03-12T12:14:47.382Z,4.53
2023-03-12T12:17:44.195Z,5.43
2023-03-12T12:20:43.384Z,4.20
2023-03-12T12:23:31.068Z,4.13
2023-03-12T12:26:17.328Z,4.07
2023-03-12T12:28:54.045Z,3.90
2023-03-12T12:31:37.289Z,3.95
2023-03-12T12:34:35.512Z,4.22
2023-03-12T12:37:25.835Z,4.45
2023-03-12T12:40:17.423Z,3.40
2023-03-12T12:43:25.246Z,4.43
2023-03-12T12:45:55.472Z,3.35
2023-03-12T12:48:39.964Z,3.42
2023-03-12T12:51:09.027Z,3.92
2023-03-12T12:54:02.760Z,3.35
2023-03-12T12:56:38.986Z,4.38
2023-03-12T12:59:32.149Z,3.83
2023-03-12T13:02:02.054Z,3.05
2023-03-12T13:04:33.825Z,3.33
2023-03-12T13:07:12.529Z,3.28
2023-03-12T13:09:50.396Z,3.10
2023-03-12T13:12:30.722Z,3.22
2023-03-12T13:14:58.970Z,3.38
2023-03-12T13:17:27.600Z,3.25
2023-03-12T13:20:01.970Z,3.22
2023-03-12T13:22:38.137Z,3.03
2023-03-12T13:25:45.738Z,3.30
2023-03-12T13:28:30.203Z,3.00
2023-03-12T13:31:16.891Z,2.55
2023-03-12T13:33:48.020Z,2.90
2023-03-12T13:39:06.281Z,2.67
2023-03-12T13:41:41.518Z,3.15
2023-03-12T13:44:29.068Z,3.17
2023-03-12T13:47:26.959Z,2.60
2023-03-12T13:50:05.472Z,2.85
2023-03-12T13:52:51.572Z,2.65
2023-03-12T13:55:25.317Z,2.20
2023-03-12T13:58:00.552Z,2.13
2023-03-12T14:00:40.210Z,2.20
2023-03-12T14:03:16.144Z,1.70
2023-03-12T14:05:52.608Z,1.50
2023-03-12T14:08:42.496Z,1.73
2023-03-12T14:11:36.709Z,2.03
2023-03-12T14:14:41.540Z,1.75
2023-03-12T14:17:29.087Z,2.50
2023-03-12T14:20:02.323Z,1.90
2023-03-12T14:22:33.855Z,2.20
2023-03-12T14:25:17.493Z,1.63
2023-03-12T14:27:47.481Z,1.90
2023-03-12T14:30:28.650Z,2.13
2023-03-12T14:32:59.575Z,2.55
2023-03-12T14:35:40.875Z,2.97
2023-03-12T14:38:27.918Z,3.00
2023-03-12T14:41:20.204Z,2.33
2023-03-12T14:43:52.308Z,2.28
2023-03-12T14:46:24.099Z,2.50
2023-03-12T14:48:54.857Z,2.45
2023-03-12T14:51:27.793Z,2.10
2023-03-12T14:53:55.160Z,2.30
2023-03-12T14:56:29.348Z,1.65
2023-03-12T14:58:58.418Z,2.33
2023-03-12T15:01:29.631Z,1.90
2023-03-12T15:04:06.171Z,1.67
2023-03-12T15:06:40.110Z,1.90
2023-03-12T15:09:07.694Z,1.88
2023-03-12T15:11:37.417Z,2.10
2023-03-12T15:14:11.963Z,1.52
2023-03-12T15:16:38.999Z,1.90
2023-03-12T15:19:06.092Z,1.67
2023-03-12T15:21:36.177Z,1.85
2023-03-12T15:24:03.782Z,2.03
2023-03-12T15:26:34.713Z,2.20
2023-03-12T15:31:59.575Z,1.63
2023-03-12T15:34:53.668Z,1.60
2023-03-12T15:37:37.795Z,1.55
2023-03-12T15:40:26.191Z,1.67
2023-03-12T15:43:03.329Z,1.02
2023-03-12T15:45:39.506Z,1.42
2023-03-12T15:48:22.876Z,1.35
2023-03-12T15:50:51.475Z,1.80
2023-03-12T15:53:18.071Z,1.70
2023-03-12T15:56:21.257Z,1.45
2023-03-12T15:58:58.394Z,1.83
2023-03-12T16:01:28.052Z,1.60
2023-03-12T16:03:55.124Z,2.60
2023-03-12T16:06:26.234Z,2.30
2023-03-12T16:08:59.904Z,1.52
2023-03-12T16:11:30.781Z,2.00
2023-03-12T16:16:30.750Z,1.60
2023-03-12T16:18:57.626Z,1.40
2023-03-12T16:21:24.380Z,1.10
2023-03-12T16:23:51.009Z,1.70
2023-03-12T16:26:17.919Z,3.08
2023-03-12T16:28:45.121Z,1.70
2023-03-12T16:31:15.968Z,1.50
2023-03-12T16:36:13.805Z,1.45
2023-03-12T16:38:40.615Z,1.50
2023-03-12T16:41:11.939Z,1.27
2023-03-12T16:43:38.936Z,1.20
2023-03-12T16:46:09.319Z,1.70
2023-03-12T16:48:36.652Z,1.20
2023-03-12T16:51:04.243Z,1.20
2023-03-12T16:53:30.935Z,1.33
2023-03-12T16:56:00.931Z,1.63
2023-03-12T16:58:29.126Z,1.73
2023-03-12T17:00:56.809Z,1.40
2023-03-12T17:03:40.195Z,1.45
2023-03-12T17:06:08.307Z,1.63
2023-03-12T17:08:35.915Z,2.03
2023-03-12T17:11:02.737Z,2.10
2023-03-12T17:13:30.996Z,2.08
2023-03-12T17:15:58.857Z,1.23
2023-03-12T17:18:25.679Z,1.65
2023-03-12T17:20:52.421Z,1.40
2023-03-12T17:23:19.508Z,1.80
2023-03-12T17:25:46.385Z,1.10
2023-03-12T17:28:14.267Z,1.63
2023-03-12T17:30:41.245Z,1.48
2023-03-12T17:33:17.767Z,2.17
2023-03-12T17:35:44.970Z,2.00
2023-03-12T17:38:12.745Z,3.15
2023-03-12T17:40:41.425Z,2.10
2023-03-12T17:43:08.242Z,2.03
2023-03-12T17:45:37.695Z,1.55
2023-03-12T17:48:04.588Z,1.92
2023-03-12T17:50:31.518Z,1.30
2023-03-12T17:53:00.490Z,1.90
2023-03-12T17:55:27.162Z,1.63
2023-03-12T17:57:53.784Z,1.95
2023-03-12T18:00:22.560Z,2.33
2023-03-12T18:02:49.917Z,1.40
2023-03-12T18:05:16.609Z,1.75
2023-03-12T18:07:43.313Z,1.35
2023-03-12T18:10:11.411Z,2.13
2023-03-12T18:12:40.035Z,1.50
2023-03-12T18:15:08.467Z,2.17
2023-03-12T18:17:35.167Z,1.60
2023-03-12T18:20:10.604Z,1.50
2023-03-12T18:22:39.089Z,1.67
2023-03-12T18:25:07.354Z,1.83
2023-03-12T18:27:36.739Z,1.30
2023-03-12T18:30:04.400Z,1.30
2023-03-12T18:32:31.109Z,1.52
2023-03-12T18:34:58.012Z,1.88
2023-03-12T18:37:24.640Z,2.10
2023-03-12T18:39:51.355Z,2.35
2023-03-12T18:42:18.089Z,2.10
2023-03-12T18:44:44.867Z,2.45
2023-03-12T18:47:11.632Z,2.95
2023-03-12T18:49:38.262Z,1.80
2023-03-12T18:52:05.067Z,1.95
2023-03-12T18:54:33.578Z,1.73
2023-03-12T18:57:00.786Z,1.38
2023-03-12T18:59:30.785Z,1.90
2023-03-12T19:01:59.028Z,2.05
2023-03-12T19:04:25.936Z,1.92
2023-03-12T19:06:52.698Z,1.50
2023-03-12T19:09:19.672Z,1.92
2023-03-12T19:11:47.987Z,2.42
2023-03-12T19:14:14.793Z,2.72
2023-03-12T19:16:41.587Z,3.08
2023-03-12T19:19:17.581Z,2.92
2023-03-12T19:21:44.190Z,2.05
2023-03-12T19:24:11.256Z,2.30
2023-03-12T19:26:38.944Z,2.22
2023-03-12T19:29:07.873Z,2.13
2023-03-12T19:31:34.671Z,2.25
2023-03-12T19:34:01.810Z,2.05
2023-03-12T19:36:28.428Z,3.00
2023-03-12T19:38:55.063Z,2.47
2023-03-12T19:41:21.967Z,1.67
2023-03-12T19:43:48.740Z,2.10
2023-03-12T19:46:15.408Z,2.30
2023-03-12T19:48:42.167Z,2.03
2023-03-12T19:51:10.911Z,2.30
2023-03-12T19:53:37.967Z,2.10
2023-03-12T19:56:05.513Z,1.45
2023-03-12T19:58:32.387Z,2.42
2023-03-12T20:01:02.344Z,1.70
2023-03-12T20:03:33.407Z,1.60
2023-03-12T20:06:00.303Z,2.42
2023-03-12T20:08:34.219Z,1.60
2023-03-12T20:11:11.483Z,1.67
2023-03-12T20:13:38.761Z,1.85
2023-03-12T20:16:07.705Z,1.70
2023-03-12T20:18:34.619Z,1.48
2023-03-12T20:21:01.416Z,1.80
2023-03-12T20:23:28.113Z,1.58
2023-03-12T20:25:54.735Z,1.73
2023-03-12T20:28:21.492Z,2.78
2023-03-12T20:30:48.612Z,2.03
2023-03-12T20:33:16.182Z,1.50
2023-03-12T20:35:42.955Z,3.00
2023-03-12T20:38:09.775Z,2.85
2023-03-12T20:40:36.518Z,1.83
2023-03-12T20:43:04.784Z,1.73
2023-03-12T20:45:33.052Z,1.75
2023-03-12T20:48:00.681Z,3.50
2023-03-12T20:50:28.061Z,4.38
2023-03-12T20:52:54.796Z,2.15
2023-03-12T20:55:21.881Z,1.63
2023-03-12T20:57:48.606Z,1.45
2023-03-12T21:00:16.017Z,0.82
2023-03-12T21:02:42.780Z,1.52
2023-03-12T21:05:13.235Z,1.30
2023-03-12T21:07:40.378Z,1.50
2023-03-12T21:10:10.193Z,1.27
2023-03-12T21:12:39.545Z,1.40
2023-03-12T21:15:12.293Z,1.67
2023-03-12T21:17:40.495Z,1.45
2023-03-12T21:20:09.906Z,1.90
2023-03-12T21:22:37.006Z,1.60
2023-03-12T21:25:04.206Z,3.60
2023-03-12T21:27:41.131Z,2.50
2023-03-12T21:30:16.128Z,1.90
2023-03-12T21:32:42.995Z,1.83
2023-03-12T21:35:10.472Z,1.77
2023-03-12T21:37:37.259Z,3.20
2023-03-12T21:40:04.904Z,2.38
2023-03-12T21:42:33.216Z,2.15
2023-03-12T21:44:59.883Z,1.92
2023-03-12T21:47:27.692Z,1.30
2023-03-12T21:49:54.394Z,1.50
2023-03-12T21:52:21.080Z,1.50
2023-03-12T21:54:47.726Z,1.65
2023-03-12T21:57:14.472Z,1.23
2023-03-12T21:59:41.236Z,1.25
2023-03-12T22:02:10.619Z,1.35
2023-03-12T22:04:37.296Z,1.20
2023-03-12T22:07:04.129Z,1.30
2023-03-12T22:09:31.037Z,1.20
2023-03-12T22:11:57.684Z,1.23
2023-03-12T22:14:25.023Z,1.58
2023-03-12T22:16:52.788Z,1.52
2023-03-12T22:19:21.466Z,1.10
2023-03-12T22:21:48.123Z,0.90
2023-03-12T22:24:14.834Z,1.92
2023-03-12T22:26:41.513Z,1.00
2023-03-12T22:29:08.946Z,1.23
2023-03-12T22:31:35.728Z,0.95
2023-03-12T22:34:02.483Z,1.20
2023-03-12T22:36:29.932Z,0.98
2023-03-12T22:38:57.256Z,1.20
2023-03-12T22:41:28.778Z,1.20
2023-03-12T22:44:00.801Z,1.30
2023-03-12T22:46:27.648Z,1.10
2023-03-12T22:48:57.293Z,1.17
2023-03-12T22:51:24.814Z,1.33
2023-03-12T22:53:51.812Z,0.70
2023-03-12T22:56:18.501Z,0.95
2023-03-12T22:58:45.226Z,1.00
2023-03-12T23:01:14.343Z,1.20
2023-03-12T23:03:42.722Z,1.10
2023-03-12T23:06:17.973Z,1.30
2023-03-12T23:08:47.083Z,1.17
2023-03-12T23:11:14.962Z,0.95
2023-03-12T23:13:44.246Z,1.25
2023-03-12T23:16:13.800Z,1.05
2023-03-12T23:18:41.633Z,0.90
2023-03-12T23:21:10.521Z,0.90
2023-03-12T23:23:39.477Z,1.10
2023-03-12T23:26:06.538Z,0.75
2023-03-12T23:28:33.332Z,0.95
2023-03-12T23:31:06.137Z,1.00
2023-03-12T23:33:34.248Z,1.00
2023-03-12T23:36:02.942Z,0.90
2023-03-12T23:38:31.256Z,1.42
2023-03-12T23:41:05.635Z,0.98
2023-03-12T23:43:32.799Z,1.20
2023-03-12T23:46:01.172Z,1.10
2023-03-12T23:48:29.652Z,1.10
2023-03-12T23:51:05.629Z,0.80
2023-03-12T23:53:33.047Z,0.75
2023-03-12T23:56:01.321Z,1.20
2023-03-12T23:58:28.508Z,1.15
